Time;durP1;ratioP1;P1;durP2;ratioP2;P2;SDS_P1;SDS_P2;PMS_P1;PMS_P2;Temp;Humidity;BMP_temperature;BMP_pressure;BME280_temperature;BME280_humidity;BME280_pressure;Samples;Min_cycle;Max_cycle;Signal;HPM_P1;HPM_P2
2021/08/08 00:01:00;;;;;;;6.57;2.58;;;11.20;99.90;;;;;;5089308;28;20384;-84
2021/08/08 00:03:28;;;;;;;6.75;2.17;;;11.20;99.90;;;;;;5088166;28;20391;-84
2021/08/08 00:05:56;;;;;;;7.25;2.35;;;11.30;99.90;;;;;;5087093;28;20393;-83
2021/08/08 00:08:26;;;;;;;5.30;2.40;;;11.30;99.90;;;;;;5102361;28;20495;-83
2021/08/08 00:10:53;;;;;;;3.67;1.90;;;11.30;99.90;;;;;;5067082;28;20400;-82
2021/08/08 00:13:20;;;;;;;7.32;2.20;;;11.30;99.90;;;;;;5088119;28;20980;-82
2021/08/08 00:15:47;;;;;;;8.50;2.17;;;11.30;99.90;;;;;;5068262;28;20946;-83
2021/08/08 00:18:14;;;;;;;9.13;1.97;;;11.30;99.90;;;;;;5085467;28;20859;-83
2021/08/08 00:20:41;;;;;;;9.13;2.72;;;11.30;99.90;;;;;;5085145;28;20452;-83
2021/08/08 00:23:08;;;;;;;8.93;3.22;;;11.50;99.90;;;;;;5081318;28;20494;-83
2021/08/08 00:25:35;;;;;;;7.68;2.60;;;11.50;99.90;;;;;;5069943;28;20717;-83
2021/08/08 00:28:03;;;;;;;8.23;2.50;;;11.40;99.90;;;;;;5086536;28;20416;-80
2021/08/08 00:30:33;;;;;;;5.28;2.33;;;11.50;99.90;;;;;;5088910;28;20843;-83
2021/08/08 00:33:00;;;;;;;9.40;2.75;;;11.50;99.90;;;;;;5068576;28;20489;-83
2021/08/08 00:35:27;;;;;;;7.50;2.40;;;11.40;99.90;;;;;;5082518;28;20850;-83
2021/08/08 00:37:54;;;;;;;7.97;2.40;;;11.40;99.90;;;;;;5081860;28;20395;-83
2021/08/08 00:40:22;;;;;;;7.22;2.17;;;11.50;99.90;;;;;;5089278;28;20380;-82
2021/08/08 00:42:49;;;;;;;7.13;2.70;;;11.90;99.90;;;;;;5092643;28;20458;-83
2021/08/08 00:45:18;;;;;;;10.82;2.33;;;12.10;99.90;;;;;;5104318;28;20863;-83
2021/08/08 00:47:46;;;;;;;5.95;2.10;;;12.40;99.90;;;;;;5080921;28;20404;-83
2021/08/08 00:50:14;;;;;;;7.88;2.22;;;12.60;99.90;;;;;;5089150;28;20437;-82
2021/08/08 00:52:42;;;;;;;6.57;1.67;;;12.90;99.90;;;;;;5094739;28;20449;-82
2021/08/08 00:55:11;;;;;;;6.80;2.00;;;13.10;99.90;;;;;;5111823;28;20402;-83
2021/08/08 00:57:38;;;;;;;7.13;1.73;;;13.30;99.90;;;;;;5095342;28;20373;-81
2021/08/08 01:00:07;;;;;;;7.82;1.95;;;13.50;99.90;;;;;;5098205;28;20396;-82
2021/08/08 01:02:38;;;;;;;8.38;2.15;;;13.60;99.90;;;;;;5097111;28;20391;-81
2021/08/08 01:05:15;;;;;;;11.93;2.47;;;13.60;99.90;;;;;;5104843;28;20388;-81
2021/08/08 01:07:51;;;;;;;9.97;2.07;;;13.60;99.90;;;;;;5103024;28;20408;-81
2021/08/08 01:10:19;;;;;;;10.35;2.03;;;13.60;99.90;;;;;;5065547;28;20890;-83
2021/08/08 01:12:49;;;;;;;8.27;2.40;;;13.70;99.90;;;;;;5057073;28;20901;-82
2021/08/08 01:15:19;;;;;;;8.55;2.20;;;13.70;99.90;;;;;;5070735;28;20871;-83
2021/08/08 01:17:46;;;;;;;11.17;2.30;;;13.80;99.90;;;;;;5087503;28;20379;-83
2021/08/08 01:20:14;;;;;;;10.18;2.15;;;13.90;99.90;;;;;;5058412;28;20396;-82
2021/08/08 01:22:51;;;;;;;9.30;1.97;;;13.90;99.90;;;;;;5061537;28;20552;-84
2021/08/08 01:25:20;;;;;;;10.35;2.33;;;13.70;99.90;;;;;;5068692;28;20396;-83
2021/08/08 01:27:47;;;;;;;11.95;3.05;;;13.70;99.90;;;;;;5085671;28;20466;-85
2021/08/08 01:30:14;;;;;;;9.10;1.90;;;13.50;99.90;;;;;;5090449;28;20467;-84
2021/08/08 01:32:43;;;;;;;16.33;2.85;;;13.30;99.90;;;;;;5088800;28;20406;-84
2021/08/08 01:35:13;;;;;;;14.23;2.53;;;13.10;99.90;;;;;;5070283;28;20397;-83
2021/08/08 01:37:40;;;;;;;16.75;3.05;;;13.00;99.90;;;;;;5059506;28;21352;-84
2021/08/08 01:40:16;;;;;;;17.38;2.92;;;12.80;99.90;;;;;;5093568;28;20373;-84
2021/08/08 01:42:46;;;;;;;15.68;2.72;;;12.70;99.90;;;;;;5072191;28;20858;-84
2021/08/08 01:45:14;;;;;;;15.25;2.70;;;12.60;99.90;;;;;;5056714;28;20400;-84
2021/08/08 01:47:49;;;;;;;13.00;2.50;;;12.80;99.90;;;;;;5070709;28;20495;-84
2021/08/08 01:50:18;;;;;;;13.85;3.00;;;12.90;99.90;;;;;;5073501;28;20392;-85
2021/08/08 01:52:47;;;;;;;14.33;3.00;;;12.80;99.90;;;;;;5082749;28;21034;-84
2021/08/08 01:55:15;;;;;;;15.07;2.90;;;12.70;99.90;;;;;;5072773;28;20395;-84
2021/08/08 01:57:42;;;;;;;20.13;3.80;;;12.80;99.90;;;;;;5096549;28;20386;-84
2021/08/08 02:00:10;;;;;;;13.17;2.93;;;12.90;99.90;;;;;;5071825;28;20476;-84
2021/08/08 02:02:48;;;;;;;16.98;2.97;;;13.00;99.90;;;;;;5084602;28;20533;-84
2021/08/08 02:05:15;;;;;;;14.95;3.55;;;12.90;99.90;;;;;;5081789;28;20398;-85
2021/08/08 02:07:42;;;;;;;17.15;2.92;;;12.80;99.90;;;;;;5070642;28;20411;-83
2021/08/08 02:10:10;;;;;;;14.57;3.35;;;12.90;99.90;;;;;;5082979;28;20393;-84
2021/08/08 02:12:37;;;;;;;15.83;3.37;;;13.00;99.90;;;;;;5088215;28;20396;-82
2021/08/08 02:15:06;;;;;;;16.88;3.05;;;13.10;99.90;;;;;;5069335;28;20392;-83
2021/08/08 02:17:34;;;;;;;14.48;2.95;;;13.20;99.90;;;;;;5068959;28;20747;-83
2021/08/08 02:20:01;;;;;;;17.47;3.40;;;13.20;99.90;;;;;;5081226;28;20385;-83
2021/08/08 02:22:53;;;;;;;14.88;3.05;;;13.20;99.90;;;;;;5084733;28;20380;-84
2021/08/08 02:25:31;;;;;;;13.10;2.72;;;13.40;99.90;;;;;;5094261;28;20413;-83
2021/08/08 02:27:58;;;;;;;16.77;3.23;;;13.40;99.90;;;;;;5095950;28;20404;-85
2021/08/08 02:30:25;;;;;;;18.85;3.67;;;13.50;99.90;;;;;;5093440;28;20432;-83
2021/08/08 02:32:53;;;;;;;21.63;3.17;;;13.50;99.90;;;;;;5090861;28;20433;-84
2021/08/08 02:35:33;;;;;;;18.00;2.95;;;13.50;99.90;;;;;;5073562;28;20403;-83
2021/08/08 02:38:00;;;;;;;16.02;3.42;;;13.50;99.90;;;;;;5071624;28;20775;-83
2021/08/08 02:40:34;;;;;;;18.88;3.38;;;13.40;99.90;;;;;;5081408;28;20425;-83
2021/08/08 02:43:01;;;;;;;16.30;3.23;;;13.40;99.90;;;;;;5090610;28;20425;-84
2021/08/08 02:46:01;;;;;;;17.25;2.75;;;13.30;99.90;;;;;;5070534;28;20791;-82
2021/08/08 02:48:21;;;;;;;18.25;3.50;;;13.40;99.90;;;;;;5080590;28;20413;-83
2021/08/08 02:50:50;;;;;;;18.52;3.33;;;13.40;99.90;;;;;;5051232;28;20435;-82
2021/08/08 02:53:17;;;;;;;13.32;2.42;;;13.40;99.90;;;;;;5062654;28;20382;-83
2021/08/08 02:55:44;;;;;;;17.98;3.05;;;13.50;99.90;;;;;;5070784;28;20385;-82
2021/08/08 02:58:11;;;;;;;16.33;3.25;;;13.60;99.90;;;;;;5055961;28;20404;-83
2021/08/08 03:00:40;;;;;;;14.82;3.42;;;13.60;99.90;;;;;;5052170;28;20496;-83
2021/08/08 03:03:07;;;;;;;16.83;3.20;;;13.60;99.90;;;;;;5060656;28;20444;-83
2021/08/08 03:05:34;;;;;;;18.50;3.55;;;13.60;99.90;;;;;;5060764;28;20373;-82
2021/08/08 03:08:01;;;;;;;18.77;3.03;;;13.60;99.90;;;;;;5078294;28;20497;-82
2021/08/08 03:10:29;;;;;;;19.02;2.88;;;13.60;99.90;;;;;;5059698;28;20463;-83
2021/08/08 03:12:56;;;;;;;15.65;3.25;;;13.60;99.90;;;;;;5049773;28;20460;-82
2021/08/08 03:15:23;;;;;;;13.60;2.88;;;13.50;99.90;;;;;;5049795;28;20427;-82
2021/08/08 03:17:53;;;;;;;21.00;3.30;;;13.40;99.90;;;;;;5064425;28;20514;-83
2021/08/08 03:20:20;;;;;;;18.10;3.55;;;13.30;99.90;;;;;;5071480;28;20900;-83
2021/08/08 03:22:48;;;;;;;18.60;3.20;;;13.30;99.90;;;;;;5070137;28;20409;-83
2021/08/08 03:25:15;;;;;;;12.95;2.85;;;13.20;99.90;;;;;;5054779;28;20392;-83
2021/08/08 03:27:42;;;;;;;13.15;2.92;;;13.20;99.90;;;;;;5079338;28;20403;-84
2021/08/08 03:30:10;;;;;;;16.02;3.25;;;13.10;99.90;;;;;;5070796;28;20398;-84
2021/08/08 03:32:37;;;;;;;18.02;3.25;;;13.10;99.90;;;;;;5044817;28;20384;-83
2021/08/08 03:35:06;;;;;;;16.70;3.08;;;13.10;99.90;;;;;;5053590;28;20940;-83
2021/08/08 03:37:35;;;;;;;19.02;3.65;;;13.10;99.90;;;;;;5055025;28;20383;-84
2021/08/08 03:40:03;;;;;;;18.20;3.33;;;13.00;99.90;;;;;;5051459;28;20383;-84
2021/08/08 03:42:30;;;;;;;19.77;3.35;;;13.00;99.90;;;;;;5035144;28;20387;-84
2021/08/08 03:44:57;;;;;;;20.70;3.50;;;13.00;99.90;;;;;;5037034;28;22067;-83
2021/08/08 03:47:24;;;;;;;22.20;3.60;;;12.90;99.90;;;;;;5064083;28;20393;-84
2021/08/08 03:49:51;;;;;;;21.20;3.83;;;12.90;99.90;;;;;;5041307;28;20813;-83
2021/08/08 03:52:18;;;;;;;16.38;2.95;;;12.90;99.90;;;;;;5059670;28;20478;-84
2021/08/08 03:54:45;;;;;;;17.33;3.33;;;13.00;99.90;;;;;;5069185;28;20386;-84
2021/08/08 03:57:17;;;;;;;18.10;3.30;;;13.00;99.90;;;;;;5059088;28;21000;-84
2021/08/08 03:59:44;;;;;;;21.75;3.38;;;13.00;99.90;;;;;;5070040;28;20401;-84
2021/08/08 04:02:11;;;;;;;16.50;3.10;;;12.90;99.90;;;;;;5069158;28;20391;-84
2021/08/08 04:04:38;;;;;;;20.38;3.85;;;12.90;99.90;;;;;;5067631;28;20378;-84
2021/08/08 04:07:05;;;;;;;24.00;3.57;;;12.90;99.90;;;;;;5052122;28;20430;-84
2021/08/08 04:09:32;;;;;;;19.97;3.57;;;12.90;99.90;;;;;;5070107;28;20961;-84
2021/08/08 04:11:59;;;;;;;19.52;3.72;;;12.90;99.90;;;;;;5069540;28;20473;-84
2021/08/08 04:14:26;;;;;;;19.52;3.53;;;12.90;99.90;;;;;;5066354;28;20409;-84
2021/08/08 04:16:52;;;;;;;22.30;4.30;;;12.80;99.90;;;;;;5068061;28;20987;-85
2021/08/08 04:19:19;;;;;;;16.83;2.95;;;12.70;99.90;;;;;;5061630;28;20404;-85
2021/08/08 04:21:46;;;;;;;20.23;3.40;;;12.70;99.90;;;;;;5047358;28;20402;-85
2021/08/08 04:24:13;;;;;;;22.38;3.85;;;12.60;99.90;;;;;;5068273;28;20459;-85
2021/08/08 04:26:42;;;;;;;22.02;3.70;;;12.50;99.90;;;;;;5050898;28;20389;-84
2021/08/08 04:29:09;;;;;;;16.57;3.47;;;12.50;99.90;;;;;;5050841;28;20449;-86
2021/08/08 04:31:36;;;;;;;16.13;3.35;;;12.50;99.90;;;;;;5069800;28;20413;-85
2021/08/08 04:34:03;;;;;;;20.98;3.17;;;12.50;99.90;;;;;;5067731;28;20483;-85
2021/08/08 04:36:30;;;;;;;20.45;3.50;;;12.50;99.90;;;;;;5065022;28;20383;-84
2021/08/08 04:38:57;;;;;;;20.77;4.10;;;12.60;99.90;;;;;;5038328;28;20417;-82
2021/08/08 04:41:24;;;;;;;15.85;3.80;;;12.60;99.90;;;;;;5065162;28;20489;-82
2021/08/08 04:43:52;;;;;;;19.73;3.93;;;12.70;99.90;;;;;;5068034;28;20415;-85
2021/08/08 04:46:19;;;;;;;16.65;3.40;;;12.70;99.90;;;;;;5048406;28;20406;-85
2021/08/08 04:48:48;;;;;;;17.73;3.10;;;12.70;99.90;;;;;;5071536;28;20924;-85
2021/08/08 04:51:15;;;;;;;19.00;3.20;;;12.80;99.90;;;;;;5070546;28;20396;-85
2021/08/08 04:53:41;;;;;;;20.23;4.47;;;12.80;99.90;;;;;;5068589;28;20387;-83
2021/08/08 04:56:11;;;;;;;19.20;3.63;;;12.70;99.90;;;;;;5085153;28;20388;-84
2021/08/08 04:58:37;;;;;;;20.98;3.55;;;12.60;99.90;;;;;;5075334;28;20380;-81
2021/08/08 05:01:04;;;;;;;14.35;3.20;;;12.60;99.90;;;;;;5089376;28;20396;-82
2021/08/08 05:03:33;;;;;;;24.67;4.30;;;12.60;99.90;;;;;;5073805;28;20882;-83
2021/08/08 05:06:00;;;;;;;14.82;3.45;;;12.50;99.90;;;;;;5088066;28;20415;-82
2021/08/08 05:08:27;;;;;;;19.53;3.63;;;12.30;99.90;;;;;;5094905;28;20462;-81
2021/08/08 05:10:53;;;;;;;23.13;3.95;;;12.20;99.90;;;;;;5071953;28;20395;-82
2021/08/08 05:13:21;;;;;;;20.17;4.05;;;12.20;99.90;;;;;;5088919;28;20379;-81
2021/08/08 05:15:50;;;;;;;22.25;3.83;;;12.10;99.90;;;;;;5091489;28;20852;-82
2021/08/08 05:18:17;;;;;;;25.10;4.22;;;12.10;99.90;;;;;;5087398;28;20420;-82
2021/08/08 05:20:44;;;;;;;21.83;4.07;;;12.00;99.90;;;;;;5092333;28;20383;-82
2021/08/08 05:23:16;;;;;;;23.27;3.25;;;11.90;99.90;;;;;;5091785;28;20389;-82
2021/08/08 05:25:43;;;;;;;22.25;3.63;;;12.00;99.90;;;;;;5092124;28;20423;-82
2021/08/08 05:28:10;;;;;;;18.00;4.00;;;11.90;99.90;;;;;;5092633;28;20400;-82
2021/08/08 05:30:37;;;;;;;19.77;3.42;;;11.80;99.90;;;;;;5074567;28;20372;-83
2021/08/08 05:33:04;;;;;;;18.67;3.95;;;11.80;99.90;;;;;;5101288;28;20392;-83
2021/08/08 05:35:31;;;;;;;17.92;3.97;;;11.80;99.90;;;;;;5074714;28;20400;-82
2021/08/08 05:37:58;;;;;;;15.27;3.20;;;11.80;99.90;;;;;;5091840;28;20977;-82
2021/08/08 05:40:25;;;;;;;18.92;3.10;;;11.90;99.90;;;;;;5089874;28;20821;-82
2021/08/08 05:42:52;;;;;;;16.83;3.80;;;12.00;99.90;;;;;;5091578;28;20507;-82
2021/08/08 05:45:21;;;;;;;32.42;14.00;;;12.00;99.90;;;;;;5091924;28;20373;-83
2021/08/08 05:47:49;;;;;;;33.17;16.55;;;12.00;99.90;;;;;;5055874;28;20784;-82
2021/08/08 05:50:16;;;;;;;20.75;4.35;;;12.00;99.90;;;;;;5090246;28;20395;-81
2021/08/08 05:52:55;;;;;;;20.10;4.40;;;12.00;99.90;;;;;;5091486;28;20873;-83
2021/08/08 05:55:25;;;;;;;20.70;4.13;;;12.00;99.90;;;;;;5093136;28;20391;-83
2021/08/08 05:57:52;;;;;;;21.07;4.03;;;12.10;99.90;;;;;;5065271;28;20398;-82
2021/08/08 06:00:19;;;;;;;19.20;3.60;;;12.10;99.90;;;;;;5070130;28;20445;-83
2021/08/08 06:02:46;;;;;;;14.57;2.75;;;12.20;99.90;;;;;;5091651;28;20385;-85
2021/08/08 06:05:13;;;;;;;16.23;3.33;;;12.20;99.90;;;;;;5072147;28;20388;-82
2021/08/08 06:07:40;;;;;;;22.10;5.05;;;12.10;99.90;;;;;;5067218;28;20881;-84
2021/08/08 06:10:08;;;;;;;17.92;4.53;;;12.10;99.90;;;;;;5073868;28;20398;-83
2021/08/08 06:12:35;;;;;;;16.98;3.17;;;12.00;99.90;;;;;;5053775;28;20455;-82
2021/08/08 06:15:03;;;;;;;22.48;3.38;;;12.10;99.90;;;;;;5071469;28;20370;-82
2021/08/08 06:17:34;;;;;;;16.93;3.40;;;12.10;99.90;;;;;;5071344;28;20379;-83
2021/08/08 06:20:01;;;;;;;20.38;3.90;;;12.20;99.90;;;;;;5071596;28;20383;-82
2021/08/08 06:22:28;;;;;;;18.48;3.05;;;12.30;99.90;;;;;;5062633;28;21666;-83
2021/08/08 06:24:56;;;;;;;18.35;3.30;;;12.30;99.90;;;;;;5072228;28;20396;-87
2021/08/08 06:27:23;;;;;;;17.60;3.30;;;12.30;99.90;;;;;;5071173;28;20410;-85
2021/08/08 06:29:50;;;;;;;16.17;2.95;;;12.30;99.90;;;;;;5074116;28;20519;-84
2021/08/08 06:32:17;;;;;;;17.83;3.13;;;12.40;99.90;;;;;;5072479;28;20467;-84
2021/08/08 06:34:44;;;;;;;18.42;3.45;;;12.30;99.90;;;;;;5085291;28;20401;-84
2021/08/08 06:37:11;;;;;;;15.80;3.10;;;12.30;99.90;;;;;;5103606;28;20445;-84
2021/08/08 06:39:38;;;;;;;19.45;3.47;;;12.30;99.90;;;;;;5072713;28;20404;-84
2021/08/08 06:42:06;;;;;;;19.20;3.15;;;12.30;99.90;;;;;;5052722;28;20474;-84
2021/08/08 06:44:33;;;;;;;15.68;3.80;;;12.40;99.90;;;;;;5055713;28;20449;-83
2021/08/08 06:47:00;;;;;;;18.85;3.35;;;12.40;99.90;;;;;;5072871;28;20395;-83
2021/08/08 06:49:27;;;;;;;15.95;3.40;;;12.30;99.90;;;;;;5070753;28;20495;-83
2021/08/08 06:51:54;;;;;;;16.27;3.13;;;12.30;99.90;;;;;;5089747;28;20388;-84
2021/08/08 06:54:21;;;;;;;18.10;3.60;;;12.30;99.90;;;;;;5070096;28;20404;-83
2021/08/08 06:56:48;;;;;;;21.90;4.05;;;12.30;99.90;;;;;;5068702;28;20887;-84
2021/08/08 06:59:29;;;;;;;20.05;4.05;;;12.10;99.90;;;;;;5070384;28;20378;-84
2021/08/08 07:01:57;;;;;;;17.75;4.25;;;12.00;99.90;;;;;;5081669;28;20397;-84
2021/08/08 07:04:25;;;;;;;17.60;3.70;;;11.90;99.90;;;;;;5061147;28;21001;-83
2021/08/08 07:06:53;;;;;;;20.20;4.47;;;11.90;99.90;;;;;;5057662;28;20398;-84
2021/08/08 07:09:21;;;;;;;19.92;4.20;;;11.80;99.90;;;;;;5084138;28;20408;-83
2021/08/08 07:12:30;;;;;;;21.52;8.60;;;11.70;99.90;;;;;;5087334;28;20388;-84
2021/08/08 07:14:57;;;;;;;23.90;6.22;;;11.70;99.90;;;;;;5061506;28;20386;-83
2021/08/08 07:17:24;;;;;;;29.33;12.80;;;11.70;99.90;;;;;;5068367;28;20401;-82
2021/08/08 07:19:55;;;;;;;20.30;6.43;;;11.60;99.90;;;;;;5066402;28;20396;-83
2021/08/08 07:22:22;;;;;;;31.08;11.80;;;11.60;99.90;;;;;;5070463;28;20427;-82
2021/08/08 07:24:52;;;;;;;19.80;5.43;;;11.60;99.90;;;;;;5083224;28;20523;-84
2021/08/08 07:27:21;;;;;;;24.88;6.32;;;11.70;99.90;;;;;;5069786;28;20906;-84
2021/08/08 07:29:48;;;;;;;18.63;4.40;;;11.70;99.90;;;;;;5087565;28;20415;-84
2021/08/08 07:32:15;;;;;;;20.52;4.65;;;11.70;99.90;;;;;;5070943;28;20395;-85
2021/08/08 07:34:43;;;;;;;22.90;4.82;;;11.70;99.90;;;;;;5068508;28;20473;-85
2021/08/08 07:37:10;;;;;;;16.75;3.90;;;11.70;99.90;;;;;;5087392;28;20728;-86
2021/08/08 07:39:38;;;;;;;20.10;5.47;;;11.70;99.90;;;;;;5071780;28;20428;-83
2021/08/08 07:42:06;;;;;;;19.63;4.40;;;11.70;99.90;;;;;;5072435;28;20485;-84
2021/08/08 07:44:34;;;;;;;16.00;4.33;;;11.70;99.90;;;;;;5088869;28;20501;-84
2021/08/08 07:47:01;;;;;;;17.67;6.32;;;11.70;99.90;;;;;;5088791;28;20392;-82
2021/08/08 07:49:28;;;;;;;21.70;7.63;;;11.90;99.90;;;;;;5079650;28;20409;-84
2021/08/08 07:51:56;;;;;;;42.80;21.92;;;12.00;99.90;;;;;;5089303;28;20395;-84
2021/08/08 07:54:23;;;;;;;31.38;12.52;;;12.10;99.90;;;;;;5087235;28;20920;-81
2021/08/08 07:56:50;;;;;;;37.05;15.20;;;12.00;99.90;;;;;;5088643;28;20387;-81
2021/08/08 07:59:17;;;;;;;20.42;7.47;;;11.90;99.90;;;;;;5086441;28;20400;-83
2021/08/08 08:01:45;;;;;;;16.95;6.25;;;11.80;99.90;;;;;;5081423;28;20432;-82
2021/08/08 08:04:12;;;;;;;18.33;5.07;;;11.70;99.90;;;;;;5065099;28;20430;-82
2021/08/08 08:06:39;;;;;;;18.17;5.70;;;11.80;99.90;;;;;;5066737;28;20419;-84
2021/08/08 08:09:06;;;;;;;18.77;5.90;;;11.70;99.90;;;;;;5069677;28;20420;-84
2021/08/08 08:11:34;;;;;;;18.95;5.80;;;11.80;99.90;;;;;;5080151;28;20473;-81
2021/08/08 08:14:01;;;;;;;18.08;5.25;;;11.80;99.90;;;;;;5088095;28;20798;-81
2021/08/08 08:16:28;;;;;;;18.55;4.50;;;11.80;99.90;;;;;;5081592;28;20443;-81
2021/08/08 08:18:55;;;;;;;18.27;4.38;;;11.80;99.90;;;;;;5087029;28;20428;-82
2021/08/08 08:21:22;;;;;;;17.35;3.70;;;11.70;99.90;;;;;;5089878;28;20556;-82
2021/08/08 08:23:49;;;;;;;13.73;3.90;;;11.80;99.90;;;;;;5103178;28;20401;-86
2021/08/08 08:26:17;;;;;;;18.57;4.30;;;11.80;99.90;;;;;;5090699;28;20449;-85
2021/08/08 08:28:44;;;;;;;19.08;4.35;;;11.90;99.90;;;;;;5066261;28;20420;-84
2021/08/08 08:31:11;;;;;;;15.53;4.73;;;11.80;99.90;;;;;;5087349;28;20396;-84
2021/08/08 08:33:39;;;;;;;17.58;4.95;;;11.70;99.90;;;;;;5084632;28;20390;-85
2021/08/08 08:36:06;;;;;;;16.95;5.45;;;11.80;99.90;;;;;;5067693;28;20483;-86
2021/08/08 08:38:33;;;;;;;20.05;4.72;;;11.70;99.90;;;;;;5071499;28;20407;-86
2021/08/08 08:41:03;;;;;;;20.30;6.03;;;11.60;99.90;;;;;;5067696;28;20457;-85
2021/08/08 08:43:31;;;;;;;17.50;4.85;;;11.40;99.90;;;;;;5085353;28;20867;-85
2021/08/08 08:45:59;;;;;;;19.67;4.67;;;11.40;99.90;;;;;;5063982;28;20886;-85
2021/08/08 08:48:28;;;;;;;15.57;5.20;;;11.50;99.90;;;;;;5078140;28;20414;-85
2021/08/08 08:50:56;;;;;;;14.15;4.22;;;11.40;99.90;;;;;;5048400;28;20390;-83
2021/08/08 08:53:24;;;;;;;16.87;4.43;;;11.40;99.90;;;;;;5064523;28;20943;-84
2021/08/08 08:55:52;;;;;;;21.33;4.63;;;11.40;99.90;;;;;;5049010;28;20393;-84
2021/08/08 08:58:19;;;;;;;14.82;4.75;;;11.40;99.90;;;;;;5064979;28;20401;-84
2021/08/08 09:00:47;;;;;;;17.25;4.95;;;11.40;99.90;;;;;;5047307;28;20408;-83
2021/08/08 09:03:15;;;;;;;19.80;4.90;;;11.40;99.90;;;;;;5067788;28;20386;-83
2021/08/08 09:05:42;;;;;;;20.58;5.25;;;11.40;99.90;;;;;;5034586;28;20477;-83
2021/08/08 09:08:11;;;;;;;22.15;5.10;;;11.40;99.90;;;;;;5067892;28;20405;-83
2021/08/08 09:10:39;;;;;;;21.73;5.20;;;11.30;99.90;;;;;;5071592;28;20455;-83
2021/08/08 09:13:06;;;;;;;16.30;5.00;;;11.20;99.90;;;;;;5066543;28;20413;-81
2021/08/08 09:15:43;;;;;;;20.48;6.03;;;11.20;99.90;;;;;;5045426;28;20839;-83
2021/08/08 09:18:15;;;;;;;20.38;7.97;;;11.30;99.90;;;;;;5051341;28;20408;-83
2021/08/08 09:20:44;;;;;;;19.95;8.13;;;11.30;99.90;;;;;;5050875;28;20440;-84
2021/08/08 09:23:11;;;;;;;16.33;5.32;;;11.30;99.90;;;;;;5064819;28;20404;-83
2021/08/08 09:25:49;;;;;;;16.37;4.37;;;11.30;99.90;;;;;;5037103;28;20877;-84
2021/08/08 09:28:17;;;;;;;18.63;4.73;;;11.20;99.90;;;;;;5063009;28;20400;-83
2021/08/08 09:30:45;;;;;;;22.17;5.13;;;11.20;99.90;;;;;;5056927;28;20724;-83
2021/08/08 09:33:15;;;;;;;22.58;5.80;;;11.10;99.90;;;;;;5041573;28;20399;-83
2021/08/08 09:35:44;;;;;;;21.15;5.38;;;11.10;99.90;;;;;;5044226;28;20390;-82
2021/08/08 09:38:12;;;;;;;23.08;5.35;;;11.00;99.90;;;;;;5073138;28;20378;-83
2021/08/08 09:40:43;;;;;;;17.85;5.38;;;11.00;99.90;;;;;;5076844;28;20442;-84
2021/08/08 09:43:13;;;;;;;18.67;4.93;;;11.00;99.90;;;;;;5048294;28;20373;-84
2021/08/08 09:45:43;;;;;;;16.35;5.47;;;10.90;99.90;;;;;;5047916;28;20422;-84
2021/08/08 09:48:12;;;;;;;18.63;4.88;;;10.90;99.90;;;;;;5035435;28;20910;-83
2021/08/08 09:50:44;;;;;;;21.75;5.50;;;10.80;99.90;;;;;;5048630;28;20461;-83
2021/08/08 09:53:17;;;;;;;17.33;5.68;;;10.80;99.90;;;;;;5055092;28;20380;-83
2021/08/08 09:55:45;;;;;;;18.92;5.40;;;10.80;99.90;;;;;;5088618;28;20479;-81
2021/08/08 09:58:12;;;;;;;17.75;5.40;;;10.90;99.90;;;;;;5089248;28;20375;-81
2021/08/08 10:00:41;;;;;;;19.92;5.32;;;10.90;99.90;;;;;;5085507;28;20435;-79
2021/08/08 10:03:13;;;;;;;19.60;5.40;;;10.90;99.90;;;;;;5045325;28;20766;-81
2021/08/08 10:05:43;;;;;;;28.15;7.10;;;10.90;99.90;;;;;;5089703;28;20935;-81
2021/08/08 10:08:17;;;;;;;19.17;6.47;;;10.90;99.90;;;;;;5072446;28;20428;-81
2021/08/08 10:10:49;;;;;;;19.40;5.95;;;10.80;99.90;;;;;;5072767;28;20758;-82
2021/08/08 10:13:24;;;;;;;20.10;6.38;;;10.80;99.90;;;;;;5082953;28;20735;-82
2021/08/08 10:15:53;;;;;;;23.30;6.22;;;10.80;99.90;;;;;;5070978;28;20467;-82
2021/08/08 10:18:25;;;;;;;23.77;6.38;;;10.80;99.90;;;;;;5070819;28;22025;-82
2021/08/08 10:20:54;;;;;;;20.48;6.65;;;10.60;99.90;;;;;;5090143;28;20377;-81
2021/08/08 10:23:22;;;;;;;16.25;5.75;;;10.60;99.90;;;;;;5070319;28;20746;-82
2021/08/08 10:25:53;;;;;;;19.10;6.10;;;10.60;99.90;;;;;;5104047;28;20891;-82
2021/08/08 10:28:21;;;;;;;19.23;5.72;;;10.70;99.90;;;;;;5070156;28;20886;-82
2021/08/08 10:30:49;;;;;;;19.98;5.60;;;10.70;99.90;;;;;;5087919;28;20467;-82
2021/08/08 10:33:16;;;;;;;24.30;6.30;;;10.70;99.90;;;;;;5087041;28;20428;-82
2021/08/08 10:35:48;;;;;;;21.02;6.32;;;10.70;99.90;;;;;;5056941;28;20393;-82
2021/08/08 10:38:16;;;;;;;22.17;6.80;;;10.80;99.90;;;;;;5069684;28;20392;-82
2021/08/08 10:40:46;;;;;;;18.23;5.88;;;10.70;99.90;;;;;;5081227;28;20745;-82
2021/08/08 10:43:32;;;;;;;18.83;6.03;;;10.80;99.90;;;;;;5065948;28;20530;-82
2021/08/08 10:46:07;;;;;;;23.38;6.40;;;10.80;99.90;;;;;;5083887;28;20420;-82
2021/08/08 10:48:36;;;;;;;23.42;7.80;;;10.80;99.90;;;;;;5064678;28;20410;-82
2021/08/08 10:51:03;;;;;;;23.20;7.20;;;10.70;99.90;;;;;;5048520;28;20448;-82
2021/08/08 10:53:33;;;;;;;26.45;7.20;;;10.70;99.90;;;;;;5048834;28;20443;-82
2021/08/08 10:56:11;;;;;;;29.95;7.90;;;10.70;99.90;;;;;;5049101;28;20915;-82
2021/08/08 10:58:40;;;;;;;22.65;7.80;;;10.70;99.90;;;;;;5066515;28;20366;-82
2021/08/08 11:01:23;;;;;;;21.57;8.33;;;10.60;99.90;;;;;;5046018;28;20417;-82
2021/08/08 11:03:59;;;;;;;20.35;7.38;;;10.60;99.90;;;;;;5048369;28;20413;-83
2021/08/08 11:06:28;;;;;;;19.42;6.97;;;10.50;99.90;;;;;;5068350;28;20389;-82
2021/08/08 11:08:58;;;;;;;17.55;6.15;;;10.40;99.90;;;;;;5072248;28;20412;-83
2021/08/08 11:11:36;;;;;;;22.92;6.63;;;10.40;99.90;;;;;;5039818;28;20919;-83
2021/08/08 11:14:12;;;;;;;19.52;6.55;;;10.40;99.90;;;;;;5070436;28;20896;-83
2021/08/08 11:16:41;;;;;;;26.63;7.18;;;10.40;99.90;;;;;;5087008;28;20390;-83
2021/08/08 11:19:10;;;;;;;27.42;7.07;;;10.40;99.90;;;;;;5055532;28;20430;-83
2021/08/08 11:21:37;;;;;;;23.80;7.07;;;10.40;99.90;;;;;;5036726;28;20398;-82
2021/08/08 11:24:09;;;;;;;17.52;6.30;;;10.40;99.90;;;;;;5049765;28;20747;-82
2021/08/08 11:26:36;;;;;;;22.00;7.13;;;10.40;99.90;;;;;;5049229;28;20381;-82
2021/08/08 11:29:05;;;;;;;18.45;6.45;;;10.40;99.90;;;;;;5043412;28;20470;-82
2021/08/08 11:31:35;;;;;;;20.05;6.03;;;10.40;99.90;;;;;;5047425;28;20734;-82
2021/08/08 11:34:04;;;;;;;19.75;5.95;;;10.40;99.90;;;;;;5063125;28;20500;-82
2021/08/08 11:36:40;;;;;;;20.50;6.90;;;10.40;99.90;;;;;;5045769;28;20766;-82
2021/08/08 11:39:10;;;;;;;18.42;6.32;;;10.50;99.90;;;;;;5046459;28;20394;-82
2021/08/08 11:41:38;;;;;;;19.58;6.38;;;10.50;99.90;;;;;;5049045;28;20408;-82
2021/08/08 11:44:10;;;;;;;25.75;6.32;;;10.40;99.90;;;;;;5065972;28;20394;-82
2021/08/08 11:46:39;;;;;;;18.48;6.43;;;10.50;99.90;;;;;;5066112;28;20390;-82
2021/08/08 11:49:14;;;;;;;22.08;6.35;;;10.50;99.90;;;;;;5062781;28;20408;-83
2021/08/08 11:51:42;;;;;;;26.20;7.22;;;10.50;99.90;;;;;;5084759;28;20396;-82
2021/08/08 11:54:10;;;;;;;20.88;6.53;;;10.50;99.90;;;;;;5084562;28;20421;-82
2021/08/08 11:56:37;;;;;;;22.23;6.67;;;10.50;99.90;;;;;;5071855;28;20392;-82
2021/08/08 11:59:04;;;;;;;21.63;6.93;;;10.50;99.90;;;;;;5066511;28;20527;-82
2021/08/08 12:01:31;;;;;;;27.63;7.32;;;10.50;99.90;;;;;;5077904;28;20398;-82
2021/08/08 12:04:09;;;;;;;20.85;8.00;;;10.60;99.90;;;;;;5069999;28;20888;-82
2021/08/08 12:06:37;;;;;;;28.80;7.88;;;10.50;99.90;;;;;;5086786;28;20382;-82
2021/08/08 12:09:04;;;;;;;26.10;7.77;;;10.50;99.90;;;;;;5068923;28;20915;-82
2021/08/08 12:11:51;;;;;;;30.48;8.82;;;10.50;99.90;;;;;;5067714;28;20416;-82
2021/08/08 12:14:30;;;;;;;23.63;7.43;;;10.50;99.90;;;;;;5054423;28;20913;-82
2021/08/08 12:17:17;;;;;;;24.25;7.40;;;10.50;99.90;;;;;;5087400;28;20383;-82
2021/08/08 12:19:49;;;;;;;23.45;7.10;;;10.50;99.90;;;;;;5087964;28;20527;-82
2021/08/08 12:22:27;;;;;;;20.30;7.53;;;10.50;99.90;;;;;;5083155;28;20442;-82
2021/08/08 12:25:07;;;;;;;17.00;6.18;;;10.50;99.90;;;;;;5057279;28;20908;-82
2021/08/08 12:27:38;;;;;;;23.45;7.63;;;10.50;99.90;;;;;;5081761;28;20393;-82
2021/08/08 12:30:08;;;;;;;23.88;7.35;;;10.50;99.90;;;;;;5088870;28;20537;-82
2021/08/08 12:32:37;;;;;;;23.80;8.05;;;10.40;99.90;;;;;;5070665;28;20392;-82
2021/08/08 12:35:10;;;;;;;22.88;7.97;;;10.40;99.90;;;;;;5087752;28;20789;-82
2021/08/08 12:37:38;;;;;;;23.80;7.18;;;10.40;99.90;;;;;;5087078;28;20451;-81
2021/08/08 12:40:23;;;;;;;27.50;7.35;;;10.40;99.90;;;;;;5089175;28;20381;-82
2021/08/08 12:43:00;;;;;;;27.17;7.53;;;10.40;99.90;;;;;;5089470;28;20391;-82
2021/08/08 12:45:34;;;;;;;19.15;6.78;;;10.40;99.90;;;;;;5067995;28;20368;-82
2021/08/08 12:48:01;;;;;;;25.45;7.10;;;10.50;99.90;;;;;;5066566;28;20751;-82